• Join FlightAware (Why Join?)
  • Login
  • US Flag 
08:54AM EDT


 

Airport Tracker/Info


-or-


 

Live Flight TrackerFlight Track Log ✈ FFT825 ✈ 21-Jun-2013 ✈ KMCI - KDEN

Flight Track Log - Related Links

Times and Time Zones

All times are in EDT time to prevent confusion due to time zone crossing. See the FFT825 flight status page for this flight to view local times or setup timezone preferences in your user account.

Time Position Orientation Groundspeed Altitude Reporting Facility
EDT Latitude Longitude Course Direction KTS MPH feet Rate Location/Type
11:30AM 39.2833 -94.7333 218° Southwest 168 193 1,700  Level Kansas City TRACON
11:31AM 39.2500 -94.7667 218° Southwest 180 207 3,200 1,860 Climbing Kansas City TRACON
11:32AM 39.2169 -94.7906 209° Southwest 224 258 4,800 2,400 Climbing Kansas City Center
11:33AM 39.1639 -94.8431 218° Southwest 257 296 7,400 2,400 Climbing Kansas City Center
11:34AM 39.1611 -94.9372 268° West 275 316 9,800 1,320 Climbing Kansas City Center
11:35AM 39.1594 -95.0636 269° West 324 373 10,200 840 Climbing Kansas City Center
11:36AM 39.1578 -95.1911 269° West 366 421 11,600 2,700 Climbing Kansas City Center
11:37AM 39.1561 -95.3306 269° West 351 404 15,900 3,300 Climbing Kansas City Center
11:38AM 39.1544 -95.4636 269° West 346 398 18,500 2,220 Climbing Kansas City Center
11:39AM 39.1533 -95.5772 269° West 349 402 20,600 1,920 Climbing Kansas City Center
11:40AM 39.1508 -95.7231 269° West 366 421 22,500 1,620 Climbing Kansas City Center
11:41AM 39.1483 -95.8550 269° West 386 444 24,000 1,920 Climbing Kansas City Center
11:42AM 39.1400 -96.0100 266° West 388 447 26,500 1,920 Climbing Kansas City Center
11:43AM 39.1219 -96.1442 260° West 394 453 28,100 1,620 Climbing Kansas City Center
11:44AM 39.1164 -96.3011 267° West 391 450 29,900 900 Climbing Kansas City Center
11:45AM 39.1131 -96.4458 268° West 418 481 30,000 600 Climbing Kansas City Center
11:46AM 39.1069 -96.6283 268° West 454 522 31,200 1,440 Climbing Kansas City Center
11:47AM 39.1019 -96.7781 268° West 444 511 33,000 840 Climbing Kansas City Center
11:48AM 39.0972 -96.9567 268° West 446 513 33,000  Level Kansas City Center
11:49AM 39.0936 -97.1125 268° West 454 522 33,000 660 Level Kansas City Center
11:50AM 39.0892 -97.2678 268° West 454 522 34,400 1,440 Climbing Kansas City Center
11:51AM 39.0833 -97.4392 268° West 431 496 36,000 1,260 Climbing Kansas City Center
11:52AM 39.0778 -97.5878 267° West 435 501 37,100 960 Climbing Kansas City Center
11:53AM 39.0719 -97.7525 267° West 412 474 38,000 420 Climbing Kansas City Center
11:54AM 39.0661 -97.8961 267° West 414 476 38,000  Level Kansas City Center
11:55AM 39.0608 -98.0467 267° West 418 481 38,000  Level Kansas City Center
11:56AM 39.0544 -98.1961 267° West 420 483 38,000  Level Kansas City Center
11:58AM 39.0472 -98.3700 267° West 414 476 38,000  Level Kansas City Center
11:59AM 39.0400 -98.5200 266° West 420 483 38,000  Level Kansas City Center
12:00PM 39.0339 -98.6678 267° West 416 479 38,000  Level Kansas City Center
12:01PM 39.0281 -98.8161 267° West 417 480 38,000  Level Kansas City Center
12:02PM 39.0208 -98.9672 267° West 424 488 38,000  Level Kansas City Center
12:03PM 39.0117 -99.1461 266° West 420 483 38,000  Level Kansas City Center
12:04PM 39.0039 -99.2972 266° West 424 488 38,000  Level Kansas City Center
12:05PM 38.9961 -99.4475 266° West 423 487 38,000  Level Kansas City Center
12:06PM 38.9872 -99.6078 266° West 424 488 38,000  Level Kansas City Center
12:06PM 38.9831 -99.6789 266° West 424 488 38,000  Level Denver Center
12:07PM 38.9742 -99.8481 266° West 427 491 38,000  Level Denver Center
12:08PM 38.9653 -99.9925 266° West 426 490 38,000  Level Denver Center
12:09PM 38.9561 -100.1631 266° West 430 495 38,000  Level Denver Center
12:10PM 38.9478 -100.3097 266° West 431 496 38,000 -480 Level Denver Center
12:12PM 38.9367 -100.4786 265° West 429 494 37,100 -900 Descending Denver Center
12:13PM 38.9278 -100.6283 266° West 438 504 36,200 -1,020 Descending Denver Center
12:14PM 38.9167 -100.8033 265° West 441 507 35,100 -1,020 Descending Denver Center
12:15PM 38.9075 -100.9539 266° West 444 511 34,100 -540 Descending Denver Center
12:16PM 38.8953 -101.1306 265° West 446 513 34,000 -60 Descending Denver Center
12:17PM 38.8858 -101.2839 266° West 452 520 34,000  Level Denver Center
12:18PM 38.8736 -101.4594 265° West 447 514 34,000  Level Denver Center
12:19PM 38.8619 -101.6114 264° West 447 514 34,000  Level Denver Center
12:20PM 38.8500 -101.7894 265° West 450 518 34,000  Level Denver Center
12:21PM 38.8481 -101.9431 269° West 453 521 34,100  Climbing Denver Center
12:22PM 38.8850 -102.1181 285° West 456 525 34,000 -60 Descending Denver Center
12:23PM 38.9225 -102.2642 288° West 453 521 34,000  Level Denver Center
12:24PM 38.9669 -102.4336 289° West 448 516 34,000 -480 Level Denver Center
12:25PM 39.0039 -102.5794 288° West 449 517 33,100 -1,020 Descending Denver Center
12:26PM 39.0469 -102.7486 288° West 446 513 31,900 -960 Descending Denver Center
12:27PM 39.0869 -102.9028 289° West 454 522 31,200 -600 Descending Denver Center
12:28PM 39.1256 -103.0558 288° West 451 519 30,700 -480 Descending Denver Center
12:29PM 39.1625 -103.2006 288° West 428 493 30,300 -540 Descending Denver Center
12:30PM 39.1975 -103.3419 288° West 417 480 29,700 -1,020 Descending Denver Center
12:31PM 39.2331 -103.4817 288° West 412 474 28,300 -2,340 Descending Denver Center
12:32PM 39.2739 -103.6519 287° West 417 480 24,900 -2,640 Descending Denver Center
12:33PM 39.3228 -103.7786 297° West 394 453 22,900 -1,800 Descending Denver Center
12:34PM 39.3767 -103.8956 301° West 382 440 21,300 -1,500 Descending Denver Center
12:35PM 39.4417 -104.0125 306° West 382 440 19,800 -1,620 Descending Denver Center
12:36PM 39.5092 -104.1258 308° West 366 421 18,000 -1,560 Descending Denver Center
12:37PM 39.5694 -104.2253 308° West 349 402 16,600 -1,260 Descending Denver Center
12:38PM 39.6303 -104.3303 307° West 339 390 15,400 -1,200 Descending Denver Center
12:39PM 39.6889 -104.4261 308° West 339 390 14,200 -1,140 Descending Denver Center
12:40PM 39.7453 -104.5125 310° West 312 359 13,100 -1,080 Descending Denver Center
12:41PM 39.8378 -104.5228 355° North 310 357 12,000 -1,020 Descending Denver Center
12:43PM 39.9225 -104.5231 360° North 283 326 11,100 -960 Descending Denver Center
12:44PM 39.9967 -104.5200 North 269 310 10,100 -1,140 Descending Denver Center
12:45PM 40.0658 -104.5314 353° North 259 298 8,800 -960 Descending Denver Center
12:46PM 40.0692 -104.6089 273° West 206 237 8,200 -480 Descending Denver Center
12:47PM 40.0286 -104.6456 215° Southwest 181 208 7,800 -660 Descending Denver Center
12:48PM 39.9800 -104.6806 209° Southwest 184 212 6,900 -900 Descending Denver Center
12:49PM 39.9319 -104.6869 186° South 174 200 6,000 -780 Descending Denver Center
12:50PM 39.8886 -104.6867 180° South 148 170 5,300 -720 Descending Denver Center
12:52PM 39.8617 -104.6732 199° South  Level Estimated
12:59PM 39.8617 -104.6732 199° South  Level Estimated